• Join FlightAware (Why Join?)
  • Login
  • US Flag 
09:42AM EDT


 

Airport Tracker/Info


-or-


 

Live Flight TrackerFlight Track Log ✈ ASA2 ✈ 03-Jul-2014 ✈ KSEA - KDCA

Flight Track Log - Related Links

Times and Time Zones

All times are in EDT time to prevent confusion due to time zone crossing. See the ASA2 flight status page for this flight to view local times or setup timezone preferences in your user account.

Time Position Orientation Groundspeed Altitude Reporting Facility
EDT Latitude Longitude Course Direction KTS MPH feet Rate Location/Type
06:39PM 47.4278 -122.3078 181° South 165 190 1,300  Level Seattle Center
06:40PM 47.4011 -122.3086 181° South 177 204 2,100 2,100 Climbing Seattle Center
06:42PM 47.3219 -122.2139 141° Southeast 270 311 6,800 2,340 Climbing Seattle Center
06:43PM 47.3472 -122.1014 72° East 287 330 9,300 2,100 Climbing Seattle Center
06:44PM 47.3733 -121.9775 73° East 318 366 11,100 2,100 Climbing Seattle Center
06:45PM 47.4075 -121.8269 71° East 357 411 13,600 2,160 Climbing Seattle Center
06:46PM 47.4264 -121.6744 80° East 383 441 15,600 1,680 Climbing Seattle Center
06:50PM 47.3947 -120.9994 93° East 445 512 22,400 1,620 Climbing Seattle Center
06:51PM 47.3861 -120.7914 93° East 454 522 24,100 1,440 Climbing Seattle Center
06:52PM 47.3756 -120.6003 95° East 466 536 25,400 1,200 Climbing Seattle Center
06:54PM 47.3558 -120.2056 94° East 485 558 27,900 1,140 Climbing Seattle Center
06:55PM 47.3156 -120.0165 93° East  Level FlightAware Approximate
06:55PM 47.3442 -120.0042 95° East 490 564 29,000  Level Seattle Center
06:56PM 47.3095 -119.8263 93° East  Level FlightAware Approximate
06:57PM 47.3214 -119.5958 95° East 500 575 31,200  Level Seattle Center
06:58PM 47.3056 -119.3542 95° East 499 574 32,500 1,080 Climbing Seattle Center
06:59PM 47.2925 -119.1508 95° East 499 574 33,500 960 Climbing Seattle Center
07:00PM 47.2800 -118.9519 95° East 494 568 34,500 720 Climbing Seattle Center
07:01PM 47.2678 -118.7533 95° East 492 566 35,000 120 Climbing Seattle Center
07:03PM 47.2397 -118.3581 96° East 487 560 35,000  Level Salt Lake Center
07:04PM 47.2261 -118.1642 96° East 483 556 35,000  Level Salt Lake Center
07:05PM 47.2117 -117.9694 96° East 483 556 35,000  Level Salt Lake Center
07:06PM 47.1969 -117.7767 96° East 480 552 35,000  Level Seattle Center
07:07PM 47.1797 -117.5458 96° East 480 552 35,000  Level Seattle Center
07:09PM 47.1497 -117.1597 97° East 480 552 35,000  Level Seattle Center
07:10PM 47.1328 -116.9672 97° East 481 554 35,000  Level Seattle Center
07:11PM 47.1194 -116.7747 96° East 481 554 35,000  Level Seattle Center
07:12PM 47.1017 -116.5808 98° East 481 554 35,000  Level Seattle Center
07:15PM 47.0500 -115.9911 97° East 479 551 35,000  Level Salt Lake Center
07:17PM 47.0111 -115.5864 98° East 476 548 35,000  Level Seattle Center
07:18PM 46.9942 -115.3961 97° East 475 547 35,000  Level Seattle Center
07:19PM 46.9739 -115.1914 98° East 475 547 35,000  Level Seattle Center
07:20PM 46.9544 -114.9997 98° East 476 548 35,000  Level Seattle Center
07:21PM 46.9358 -114.8092 98° East 477 549 35,000  Level Seattle Center
07:24PM 46.8964 -114.4319 99° East 475 547 35,000  Level Salt Lake Center
07:25PM 46.8717 -114.2075 99° East 470 541 35,000  Level Salt Lake Center
07:26PM 46.8514 -114.0186 99° East 472 543 35,000  Level Salt Lake Center
07:27PM 46.8314 -113.8331 99° East 469 540 35,000  Level Salt Lake Center
07:28PM 46.8078 -113.6319 100° East 464 534 35,000  Level Salt Lake Center
07:29PM 46.7844 -113.4244 99° East 466 536 35,000  Level Salt Lake Center
07:30PM 46.7639 -113.2372 99° East 468 539 35,000  Level Salt Lake Center
07:33PM 46.6944 -112.6586 100° East 470 541 35,000  Level Salt Lake Center
07:35PM 46.6444 -112.2511 101° East 469 540 35,000  Level Salt Lake Center
07:36PM 46.6214 -112.0667 100° East 469 540 35,000  Level Salt Lake Center
07:38PM 46.5811 -111.7053 99° East 456 525 35,000  Level Salt Lake Center
07:39PM 46.5625 -111.5258 99° East 456 525 35,000  Level Salt Lake Center
07:40PM 46.5400 -111.3119 99° East 453 521 35,000  Level Salt Lake Center
07:41PM 46.5206 -111.1303 99° East 454 522 35,000  Level Salt Lake Center
07:42PM 46.5000 -110.9464 99° East 460 529 35,000  Level Salt Lake Center
07:43PM 46.4797 -110.7633 99° East 461 531 35,000  Level Salt Lake Center
07:44PM 46.4586 -110.5828 100° East 460 529 35,000  Level Salt Lake Center
07:46PM 46.3286 -110.2925 103° East 444 511 35,000  Level Salt Lake Center
07:48PM 46.1769 -109.9747 98° East 466 536 35,000  Level Salt Lake Center
07:49PM 46.1642 -109.7850 95° East 475 547 35,000  Level Salt Lake Center
07:50PM 46.1458 -109.6033 98° East 461 531 35,000  Level Salt Lake Center
07:51PM 46.1275 -109.4247 98° East 456 525 35,000  Level Salt Lake Center
07:52PM 46.1089 -109.2425 98° East 456 525 35,000  Level Salt Lake Center
07:56PM 46.0478 -108.6533 98° East 464 534 35,000  Level Salt Lake Center
07:57PM 46.0281 -108.4717 99° East 464 534 35,000  Level Salt Lake Center
07:58PM 46.0075 -108.2864 99° East 467 537 35,000  Level Salt Lake Center
07:59PM 45.9867 -108.1039 99° East 466 536 35,000  Level Salt Lake Center
08:00PM 45.9658 -107.9214 99° East 464 534 35,000  Level Salt Lake Center
08:01PM 45.9450 -107.7372 99° East 464 534 35,000  Level Salt Lake Center
08:02PM 45.9228 -107.5506 100° East 471 542 35,000  Level Salt Lake Center
08:03PM 45.8969 -107.3289 99° East 470 541 35,000  Level Salt Lake Center
08:06PM 45.8272 -106.7647 101° East 479 551 35,000  Level Salt Lake Center
08:07PM 45.8028 -106.5775 101° East 480 552 35,000  Level Salt Lake Center
08:08PM 45.7786 -106.3922 101° East 479 551 35,000  Level Salt Lake Center
08:09PM 45.7547 -106.2081 100° East 478 550 35,000  Level Salt Lake Center
08:13PM 45.6531 -105.4433 101° East 469 540 35,000  Level Salt Lake Center
08:14PM 45.6281 -105.2603 101° East 468 539 35,000  Level Salt Lake Center
08:15PM 45.6031 -105.0797 101° East 468 539 35,000  Level Salt Lake Center
08:17PM 45.5472 -104.6847 98° East 464 534 35,000  Level Salt Lake Center
08:18PM 45.5421 -104.6761 101° East  Level FlightAware Approximate
08:18PM 45.5208 -104.5019 102° East 464 534 35,000  Level Salt Lake Center
08:19PM 45.4942 -104.3242 102° East 464 534 35,000  Level Salt Lake Center
08:20PM 45.4681 -104.1450 102° East 464 534 35,000  Level Salt Lake Center
08:21PM 45.4411 -103.9617 102° East 464 534 35,000  Level Salt Lake Center
08:22PM 45.4147 -103.7831 102° East 465 535 35,000  Level Salt Lake Center
08:23PM 45.3875 -103.6031 102° East 465 535 35,000  Level Salt Lake Center
08:24PM 45.3531 -103.3886 103° East 465 535 35,000  Level Salt Lake Center
08:25PM 45.3267 -103.2100 102° East 465 535 35,000  Level Salt Lake Center
08:26PM 45.3028 -103.0550 102° East 463 533 35,000  Level Minneapolis Center
08:28PM 45.2669 -102.8406 103° East 464 534 35,000  Level Minneapolis Center
08:29PM 45.2372 -102.6603 103° East 466 536 35,000  Level Minneapolis Center
08:30PM 45.2089 -102.4825 103° East 466 536 35,000  Level Minneapolis Center
08:31PM 45.1794 -102.3053 103° East 466 536 35,000  Level Minneapolis Center
08:33PM 45.1194 -101.9533 103° East 464 534 35,000  Level Minneapolis Center
08:34PM 45.0844 -101.7428 103° East 462 532 35,000  Level Minneapolis Center
08:35PM 45.0506 -101.5661 105° East 462 532 35,000  Level Minneapolis Center
08:36PM 45.0153 -101.3914 106° East 462 532 35,000  Level Minneapolis Center
08:37PM 44.9800 -101.2142 106° East 466 536 35,000  Level Minneapolis Center
08:38PM 44.9450 -101.0381 106° East 467 537 35,000  Level Minneapolis Center
08:39PM 44.9097 -100.8578 105° East 472 543 35,000  Level Minneapolis Center
08:40PM 44.8647 -100.6439 106° East 474 545 35,000  Level Minneapolis Center
08:43PM 44.7558 -100.1192 106° East 474 545 35,000  Level Minneapolis Center
08:45PM 44.6750 -99.7364 107° East 473 544 35,000  Level Minneapolis Center
08:46PM 44.6381 -99.5608 106° East 473 544 35,000  Level Minneapolis Center
08:49PM 44.5244 -99.0378 107° East 472 543 35,000  Level Minneapolis Center
08:50PM 44.4786 -98.8278 107° East 472 543 35,000  Level Minneapolis Center
08:51PM 44.4389 -98.6503 107° East 477 549 35,000  Level Minneapolis Center
08:52PM 44.3989 -98.4742 108° East 478 550 35,000  Level Minneapolis Center
08:53PM 44.3553 -98.2819 108° East 478 550 35,000  Level Minneapolis Center
08:54PM 44.3139 -98.1061 108° East 479 551 35,000  Level Minneapolis Center
08:55PM 44.3078 -98.1196 107° East  Level FlightAware Approximate
08:55PM 44.2744 -97.9303 107° East 478 550 35,000  Level Minneapolis Center
08:56PM 44.2342 -97.7556 108° East 478 550 35,000  Level Minneapolis Center
08:57PM 44.1925 -97.5811 108° East 478 550 35,000  Level Minneapolis Center
08:58PM 44.1525 -97.4056 108° East 478 550 35,000  Level Minneapolis Center
09:00PM 44.1008 -97.1958 109° East 479 551 35,000  Level Minneapolis Center
09:01PM 44.0592 -97.0203 108° East 479 551 35,000  Level Minneapolis Center
09:02PM 44.0158 -96.8458 109° East 479 551 35,000  Level Minneapolis Center
09:03PM 43.9739 -96.6722 109° East 479 551 35,000  Level Minneapolis Center
09:04PM 43.9317 -96.5000 109° East 479 551 35,000  Level Minneapolis Center
09:05PM 43.8814 -96.2933 109° East 479 551 35,000  Level Minneapolis Center
09:06PM 43.8386 -96.1219 109° East 479 551 35,000  Level Minneapolis Center
09:07PM 43.7956 -95.9500 109° East 479 551 35,000  Level Minneapolis Center
09:08PM 43.7511 -95.7767 109° East 479 551 35,000  Level Minneapolis Center
09:09PM 43.6975 -95.5683 110° East 481 554 35,000  Level Minneapolis Center
09:11PM 43.6160 -95.2977 109° East  Level FlightAware Approximate
09:11PM 43.6067 -95.2156 109° East 489 563 35,000  Level Minneapolis Center
09:12PM 43.5611 -95.0383 109° East 489 563 35,000  Level Minneapolis Center
09:13PM 43.5136 -94.8628 110° East 490 564 35,000  Level Minneapolis Center
09:14PM 43.4658 -94.6850 110° East 495 570 35,000  Level Minneapolis Center
09:15PM 43.4092 -94.4725 110° East 495 570 35,000  Level Minneapolis Center
09:16PM 43.3622 -94.2958 110° East 495 570 35,000  Level Minneapolis Center
09:17PM 43.3186 -94.1356 110° East 495 570 35,000  Level Minneapolis Center
09:18PM 43.2589 -93.9233 111° Southeast 497 572 35,000  Level Minneapolis Center
09:19PM 43.2111 -93.7472 110° East 497 572 35,000  Level Minneapolis Center
09:20PM 43.1617 -93.5697 111° Southeast 499 574 35,000  Level Minneapolis Center
09:21PM 43.1122 -93.3928 111° Southeast 499 574 35,000  Level Minneapolis Center
09:22PM 43.0522 -93.1808 111° Southeast 502 578 35,000  Level Minneapolis Center
09:23PM 43.0025 -93.0028 111° Southeast 502 578 35,000  Level Minneapolis Center
09:24PM 42.9517 -92.8256 111° Southeast 505 581 35,000  Level Minneapolis Center
09:25PM 42.9003 -92.6483 112° Southeast 505 581 35,000  Level Minneapolis Center
09:26PM 42.8489 -92.4683 111° Southeast 509 586 35,000  Level Minneapolis Center
09:27PM 42.8058 -92.3272 113° Southeast 514 592 35,000  Level Chicago Center
09:28PM 42.7544 -92.1478 111° Southeast 514 592 35,000  Level Chicago Center
09:29PM 42.6931 -91.9378 112° Southeast 511 588 35,000  Level Chicago Center
09:30PM 42.6408 -91.7639 112° Southeast 510 587 35,000  Level Chicago Center
09:31PM 42.5892 -91.5906 112° Southeast 510 587 35,000  Level Chicago Center
09:32PM 42.5369 -91.4156 112° Southeast 511 588 35,000  Level Chicago Center
09:33PM 42.4722 -91.2075 113° Southeast 510 587 35,000  Level Chicago Center
09:34PM 42.4197 -91.0317 112° Southeast 510 587 35,000  Level Chicago Center
09:35PM 42.3653 -90.8567 113° Southeast 510 587 35,000  Level Chicago Center
09:37PM 42.3128 -90.6980 113° Southeast  Level FlightAware Approximate
09:38PM 42.2581 -90.5081 113° Southeast 506 582 35,000  Level Chicago Center
09:39PM 42.1931 -90.2969 113° Southeast 509 586 35,400 600 Climbing Chicago Center
09:41PM 42.0786 -89.9389 113° Southeast 522 601 37,000 480 Climbing Chicago Center
09:42PM 42.0192 -89.7525 113° Southeast 522 601 37,000  Level Chicago Center
09:43PM 41.9614 -89.5733 113° Southeast 523 602 37,000  Level Chicago Center
09:44PM 41.9033 -89.3933 113° Southeast 524 603 37,000  Level Chicago Center
09:45PM 41.8456 -89.2169 114° Southeast 523 602 37,000  Level Chicago Center
09:46PM 41.7772 -89.0061 113° Southeast 518 596 37,000  Level Chicago Center
09:47PM 41.7189 -88.8314 114° Southeast 517 595 37,000  Level Chicago Center
09:48PM 41.6617 -88.6586 114° Southeast 514 592 37,000  Level Chicago Center
09:49PM 41.6036 -88.4844 114° Southeast 513 590 37,000  Level Chicago Center
09:50PM 41.5461 -88.3108 114° Southeast 513 590 37,000  Level Chicago Center
09:51PM 41.5036 -88.1094 106° East 514 592 37,000  Level Chicago Center
09:52PM 41.4628 -87.9253 106° East 515 593 37,000  Level Chicago Center
09:54PM 41.3833 -87.5683 106° East 511 588 37,000  Level Chicago Center
09:55PM 41.3428 -87.3897 107° East 508 585 37,000  Level Chicago Center
09:56PM 41.3036 -87.2108 106° East 506 582 37,000  Level Chicago Center
09:58PM 41.2233 -86.8614 107° East 509 586 37,000  Level Indianapolis Center
09:59PM 41.1736 -86.6453 107° East 509 586 37,000  Level Indianapolis Center
10:00PM 41.1317 -86.4650 107° East 510 587 37,000  Level Indianapolis Center
10:01PM 41.0853 -86.2636 107° East 512 589 37,000  Level Chicago Center
10:02PM 41.0428 -86.0847 107° East 513 590 37,000  Level Chicago Center
10:03PM 41.0008 -85.9053 107° East 513 590 37,000  Level Chicago Center
10:04PM 40.9572 -85.7253 108° East 515 593 37,000  Level Chicago Center
10:05PM 40.9144 -85.5447 107° East 517 595 37,000  Level Chicago Center
10:06PM 40.8694 -85.3647 108° East 519 597 37,000  Level Chicago Center
10:07PM 40.8164 -85.1447 108° East 527 606 37,000  Level Chicago Center
10:08PM 40.7717 -84.9653 108° East 524 603 37,000  Level Chicago Center
10:09PM 40.7272 -84.7881 108° East 520 598 37,000  Level Chicago Center
10:10PM 40.6836 -84.6122 108° East 512 589 37,000  Level Chicago Center
10:11PM 40.6439 -84.4589 109° East 506 582 37,000  Level Indianapolis Center
10:12PM 40.5997 -84.2850 108° East 503 579 37,000  Level Indianapolis Center
10:13PM 40.5561 -84.1108 108° East 503 579 37,000  Level Indianapolis Center
10:14PM 40.5111 -83.9372 109° East 503 579 37,000  Level Indianapolis Center
10:15PM 40.4656 -83.7631 109° East 503 579 37,000  Level Indianapolis Center
10:16PM 40.4203 -83.5894 109° East 503 579 37,000  Level Indianapolis Center
10:17PM 40.3750 -83.4172 109° East 502 578 37,000  Level Indianapolis Center
10:18PM 40.3278 -83.2442 110° East 501 577 37,000  Level Indianapolis Center
10:19PM 40.2817 -83.0717 109° East 501 577 37,000  Level Indianapolis Center
10:21PM 40.1811 -82.6994 109° East 497 572 37,000  Level Cleveland Center
10:22PM 40.1361 -82.5328 109° East 490 564 37,000  Level Cleveland Center
10:23PM 40.0856 -82.3661 112° Southeast 490 564 37,000  Level Indianapolis Center
10:24PM 40.0353 -82.2017 112° Southeast 490 564 37,000  Level Indianapolis Center
10:25PM 39.9861 -82.0367 111° Southeast 490 564 37,000  Level Indianapolis Center
10:26PM 39.9364 -81.8719 111° Southeast 490 564 37,000  Level Indianapolis Center
10:28PM 39.8864 -81.7064 111° Southeast 490 564 37,000  Level Indianapolis Center
10:29PM 39.8367 -81.5411 111° Southeast 490 564 37,000  Level Indianapolis Center
10:30PM 39.7781 -81.3508 112° Southeast 490 564 37,000  Level Indianapolis Center
10:31PM 39.7253 -81.1839 112° Southeast 493 567 37,000  Level Indianapolis Center
10:32PM 39.6742 -81.0153 111° Southeast 496 571 37,000  Level Indianapolis Center
10:33PM 39.6275 -80.8664 112° Southeast 497 572 37,000  Level Cleveland Center
10:34PM 39.5656 -80.6708 112° Southeast 496 571 37,000  Level Cleveland Center
10:35PM 39.5144 -80.5108 112° Southeast 488 562 37,000 -180 Level Cleveland Center
10:36PM 39.4631 -80.3489 112° Southeast 487 560 36,700 -660 Descending Cleveland Center
10:37PM 39.4117 -80.1897 113° Southeast 487 560 35,700 -1,200 Descending Cleveland Center
10:38PM 39.3600 -80.0319 113° Southeast 483 556 34,300 -2,100 Descending Cleveland Center
10:39PM 39.3086 -79.8711 112° Southeast 484 557 31,500 -1,620 Descending Cleveland Center
10:40PM 39.2806 -79.6614 100° East 492 566 31,000 -300 Descending Cleveland Center
10:41PM 39.2661 -79.4867 96° East 498 573 30,900 -1,080 Descending Cleveland Center
10:42PM 39.2511 -79.3081 96° East 494 568 28,800 -1,860 Descending Cleveland Center
10:43PM 39.2361 -79.1392 96° East 481 554 27,200 -1,860 Descending Cleveland Center
10:44PM 39.2239 -78.9750 95° East 466 536 25,100 -2,040 Descending Cleveland Center
10:45PM 39.2083 -78.8183 97° East 446 513 23,100 -2,040 Descending Cleveland Center
10:46PM 39.1947 -78.6658 97° East 433 498 21,000 -1,980 Descending Cleveland Center
10:47PM 39.1794 -78.5189 98° East 420 483 19,100 -1,860 Descending Cleveland Center
10:48PM 39.1647 -78.3772 98° East 406 467 17,300 -960 Descending Cleveland Center
10:49PM 39.1281 -78.2225 107° East 378 435 17,200 -840 Descending Cleveland Center
10:50PM 39.0978 -78.1031 108° East 369 425 15,500 -1,680 Descending Washington Center
10:51PM 39.0669 -77.9817 108° East 363 418 13,700 -1,440 Descending Washington Center
10:52PM 39.0358 -77.8578 108° East 340 391 12,700 -1,140 Descending Washington Center
10:53PM 39.0067 -77.7525 110° East 316 364 11,500 -1,380 Descending Washington Center
10:54PM 38.9833 -77.6506 106° East 302 348 10,000 -1,080 Descending Washington Center
10:55PM 38.9333 -77.5333 119° Southeast 258 297 9,100 -900 Descending Potomac TRACON
10:56PM 38.9167 -77.4500 104° East 288 331 8,000 -1,200 Descending Potomac TRACON
10:57PM 38.8833 -77.3667 117° Southeast 256 295 6,700 -960 Descending Potomac TRACON
10:59PM 38.8333 -77.2833 128° Southeast 261 300 6,000 -600 Descending Potomac TRACON
11:00PM 38.8000 -77.2000 117° Southeast 254 292 5,500 -480 Descending Potomac TRACON
11:00PM 38.7667 -77.1333 123° Southeast 219 252 5,100 -1,080 Descending Potomac TRACON
11:02PM 38.7333 -77.0667 123° Southeast 209 241 3,400 -1,440 Descending Potomac TRACON
11:02PM 38.7500 -77.0167 67° East 194 223 2,300 -1,260 Descending Potomac TRACON
11:04PM 38.8000 -77.0333 345° North 139 160 900 -1,320 Descending Potomac TRACON